Saxaren — SKHW — position and weather

sailwx.info

Track history (hours):
 
Tides and Currents Weather Stations Pressure Air Temp Water Temp Dewpoint Dewpoint Depression Visibility Wind Speed Wind Dir Waves Ship Positions

Saxaren

Last reported at 2016-Sep-25 16:33 UTC. Time now 2016-Sep-25 19:11 UTC.
Position N 59°22' E 018°16'.

Length 38 m; draft 1.8 m.

Type: Passenger vessel. MMSI: 265512110.

Date/timePositionNaut miles runAvg speedWind from/ knotsBaromVisibWave heightAir tempDewpointWater temp
2016-Sep-25 16:33N 59°22' E 018°16'6 6.1
2016-Sep-25 15:33N 59°20' E 018°04'5 4.7
2016-Sep-25 14:33N 59°21' E 018°14'1 0.1
2016-Sep-25 07:33N 59°21' E 018°15'5 1.8
2016-Sep-25 04:33N 59°20' E 018°05'0 0.0
2016-Sep-25 00:33N 59°20' E 018°05'0 0.0
2016-Sep-24 22:33N 59°20' E 018°05'0 0.0
2016-Sep-24 21:33N 59°20' E 018°05'0 0.0
2016-Sep-24 19:33N 59°20' E 018°05'0 0.0
2016-Sep-24 18:33N 59°20' E 018°05'0 0.0
2016-Sep-24 17:33N 59°20' E 018°05'7 7.2
2016-Sep-24 16:33N 59°22' E 018°18'7 0.6
2016-Sep-24 03:33N 59°20' E 018°04'0 0.0
2016-Sep-24 02:33N 59°20' E 018°04'0 0.0
2016-Sep-24 01:33N 59°20' E 018°04'0 0.0
2016-Sep-24 00:33N 59°20' E 018°04'0 0.0
2016-Sep-23 19:33N 59°20' E 018°04'0 0.0
2016-Sep-23 17:33N 59°20' E 018°04'0 0.0
2016-Sep-23 16:33N 59°20' E 018°04'0 0.0
2016-Sep-23 15:33N 59°20' E 018°04'0 0.0
2016-Sep-23 13:33N 59°20' E 018°04'0 0.0
2016-Sep-23 09:33N 59°20' E 018°04'0 0.0
2016-Sep-23 06:33N 59°20' E 018°04'10 5.0
2016-Sep-23 04:33N 59°24' E 018°22'10 0.6
2016-Sep-22 12:33N 59°20' E 018°05'10 0.2
2016-Sep-20 14:08N 59°24' E 018°21'4 7.8
2016-Sep-20 13:34N 59°21' E 018°15'5 1.8
2016-Sep-20 10:33N 59°20' E 018°05'0 0.0
2016-Sep-20 08:33N 59°20' E 018°05'0 0.0
2016-Sep-20 07:33N 59°20' E 018°05'0 0.0
2016-Sep-20 06:33N 59°20' E 018°05'0 0.0
2016-Sep-20 02:33N 59°20' E 018°05'0 0.0
2016-Sep-19 23:33N 59°20' E 018°05'0 0.0
2016-Sep-19 19:33N 59°20' E 018°05'0 0.0
2016-Sep-19 18:33N 59°20' E 018°05'0 0.0
2016-Sep-19 16:33N 59°20' E 018°05'0 0.0
2016-Sep-19 14:33N 59°20' E 018°05'0 0.0
2016-Sep-19 13:33N 59°20' E 018°05'0 0.0
2016-Sep-19 12:33N 59°20' E 018°05'0 0.0
2016-Sep-19 11:33N 59°20' E 018°05'0 0.0
2016-Sep-19 09:33N 59°20' E 018°05'0 0.0
2016-Sep-19 07:33N 59°20' E 018°05'0 0.0
2016-Sep-19 06:33N 59°20' E 018°05'0 0.0
2016-Sep-19 03:33N 59°20' E 018°05'0 0.0
2016-Sep-19 02:33N 59°20' E 018°05'0 0.0
2016-Sep-19 00:33N 59°20' E 018°05'0 0.0
2016-Sep-18 19:33N 59°20' E 018°05'  
2016-Sep-16 09:34N 59°20' E 018°04'0 0.0
2016-Sep-16 07:34N 59°20' E 018°04'  
Track history (hours):
 
Tides and Currents Weather Stations Pressure Air Temp Water Temp Dewpoint Dewpoint Depression Visibility Wind Speed Wind Dir Waves Ship Positions

Saxaren

Last reported at 2016-Sep-25 16:33 UTC. Time now 2016-Sep-25 19:11 UTC.
Position N 59°22' E 018°16'.

Length 38 m; draft 1.8 m.

Type: Passenger vessel. MMSI: 265512110.

Date/timePositionNaut miles runAvg speedWind from/ knotsBaromVisibWave heightAir tempDewpointWater temp
2016-Sep-25 16:33N 59°22' E 018°16'6 6.1
2016-Sep-25 15:33N 59°20' E 018°04'5 4.7
2016-Sep-25 14:33N 59°21' E 018°14'1 0.1
2016-Sep-25 07:33N 59°21' E 018°15'5 1.8
2016-Sep-25 04:33N 59°20' E 018°05'0 0.0
2016-Sep-25 00:33N 59°20' E 018°05'0 0.0
2016-Sep-24 22:33N 59°20' E 018°05'0 0.0
2016-Sep-24 21:33N 59°20' E 018°05'0 0.0
2016-Sep-24 19:33N 59°20' E 018°05'0 0.0
2016-Sep-24 18:33N 59°20' E 018°05'0 0.0
2016-Sep-24 17:33N 59°20' E 018°05'7 7.2
2016-Sep-24 16:33N 59°22' E 018°18'7 0.6
2016-Sep-24 03:33N 59°20' E 018°04'0 0.0
2016-Sep-24 02:33N 59°20' E 018°04'0 0.0
2016-Sep-24 01:33N 59°20' E 018°04'0 0.0
2016-Sep-24 00:33N 59°20' E 018°04'0 0.0
2016-Sep-23 19:33N 59°20' E 018°04'0 0.0
2016-Sep-23 17:33N 59°20' E 018°04'0 0.0
2016-Sep-23 16:33N 59°20' E 018°04'0 0.0
2016-Sep-23 15:33N 59°20' E 018°04'0 0.0
2016-Sep-23 13:33N 59°20' E 018°04'0 0.0
2016-Sep-23 09:33N 59°20' E 018°04'0 0.0
2016-Sep-23 06:33N 59°20' E 018°04'10 5.0
2016-Sep-23 04:33N 59°24' E 018°22'10 0.6
2016-Sep-22 12:33N 59°20' E 018°05'10 0.2
2016-Sep-20 14:08N 59°24' E 018°21'4 7.8
2016-Sep-20 13:34N 59°21' E 018°15'5 1.8
2016-Sep-20 10:33N 59°20' E 018°05'0 0.0
2016-Sep-20 08:33N 59°20' E 018°05'0 0.0
2016-Sep-20 07:33N 59°20' E 018°05'0 0.0
2016-Sep-20 06:33N 59°20' E 018°05'0 0.0
2016-Sep-20 02:33N 59°20' E 018°05'0 0.0
2016-Sep-19 23:33N 59°20' E 018°05'0 0.0
2016-Sep-19 19:33N 59°20' E 018°05'0 0.0
2016-Sep-19 18:33N 59°20' E 018°05'0 0.0
2016-Sep-19 16:33N 59°20' E 018°05'0 0.0
2016-Sep-19 14:33N 59°20' E 018°05'0 0.0
2016-Sep-19 13:33N 59°20' E 018°05'0 0.0
2016-Sep-19 12:33N 59°20' E 018°05'0 0.0
2016-Sep-19 11:33N 59°20' E 018°05'0 0.0
2016-Sep-19 09:33N 59°20' E 018°05'0 0.0
2016-Sep-19 07:33N 59°20' E 018°05'0 0.0
2016-Sep-19 06:33N 59°20' E 018°05'0 0.0
2016-Sep-19 03:33N 59°20' E 018°05'0 0.0
2016-Sep-19 02:33N 59°20' E 018°05'0 0.0
2016-Sep-19 00:33N 59°20' E 018°05'0 0.0
2016-Sep-18 19:33N 59°20' E 018°05'  
2016-Sep-16 09:34N 59°20' E 018°04'0 0.0
2016-Sep-16 07:34N 59°20' E 018°04'  

Dump ship's entire track history